createdAt,value
2018-06-05T00:01:58.281Z,83.20
2018-06-05T00:04:27.854Z,83.20
2018-06-05T00:06:57.482Z,82.90
2018-06-05T00:09:27.120Z,82.40
2018-06-05T00:11:56.711Z,82.80
2018-06-05T00:14:26.304Z,82.90
2018-06-05T00:16:55.914Z,83.50
2018-06-05T00:19:25.542Z,83.50
2018-06-05T00:21:55.153Z,83.20
2018-06-05T00:24:24.724Z,83.70
2018-06-05T00:29:23.596Z,83.30
2018-06-05T00:31:53.226Z,83.90
2018-06-05T00:34:22.815Z,83.80
2018-06-05T00:36:52.355Z,83.70
2018-06-05T00:39:21.948Z,83.60
2018-06-05T00:41:51.508Z,83.50
2018-06-05T00:44:21.090Z,84.00
2018-06-05T00:46:50.737Z,83.60
2018-06-05T00:49:20.322Z,84.60
2018-06-05T00:52:05.678Z,84.20
2018-06-05T00:54:35.306Z,84.30
2018-06-05T00:57:04.953Z,84.60
2018-06-05T00:59:34.555Z,84.60
2018-06-05T01:02:04.303Z,84.30
2018-06-05T01:04:33.890Z,84.50
2018-06-05T01:07:03.538Z,84.10
2018-06-05T01:09:33.243Z,84.70
2018-06-05T01:12:05.728Z,85.00
2018-06-05T01:14:35.384Z,84.90
2018-06-05T01:17:04.971Z,85.50
2018-06-05T01:19:34.614Z,86.00
2018-06-05T01:22:04.406Z,85.90
2018-06-05T01:24:34.031Z,85.60
2018-06-05T01:27:03.720Z,84.90
2018-06-05T01:29:33.244Z,85.30
2018-06-05T01:32:02.823Z,85.50
2018-06-05T01:34:32.384Z,85.80
2018-06-05T01:37:01.993Z,86.50
2018-06-05T01:39:31.614Z,86.70
2018-06-05T01:42:01.213Z,86.00
2018-06-05T01:44:30.877Z,86.00
2018-06-05T01:47:00.532Z,86.10
2018-06-05T01:49:35.156Z,86.50
2018-06-05T01:52:04.847Z,85.90
2018-06-05T01:54:34.467Z,86.50
2018-06-05T01:57:04.104Z,86.80
2018-06-05T01:59:33.736Z,86.40
2018-06-05T02:02:03.295Z,87.00
2018-06-05T02:04:32.848Z,86.50
2018-06-05T02:07:02.466Z,86.30
2018-06-05T02:09:32.058Z,86.60
2018-06-05T02:12:01.694Z,87.30
2018-06-05T02:14:31.350Z,88.10
2018-06-05T02:17:00.976Z,87.50
2018-06-05T02:19:30.610Z,88.40
2018-06-05T02:22:00.272Z,88.10
2018-06-05T02:24:29.838Z,88.10
2018-06-05T02:26:59.458Z,87.80
2018-06-05T02:29:29.021Z,88.10
2018-06-05T02:31:58.666Z,87.70
2018-06-05T02:34:28.392Z,87.90
2018-06-05T02:36:58.024Z,87.30
2018-06-05T02:39:27.808Z,88.20
2018-06-05T02:41:57.457Z,87.50
2018-06-05T02:46:56.357Z,88.40
2018-06-05T02:49:25.970Z,87.70
2018-06-05T02:51:55.571Z,87.60
2018-06-05T02:54:25.270Z,87.80
2018-06-05T02:56:55.012Z,88.20
2018-06-05T02:59:24.580Z,88.00
2018-06-05T03:01:54.171Z,87.80
2018-06-05T03:04:23.816Z,88.00
2018-06-05T03:06:53.378Z,87.30
2018-06-05T03:09:22.957Z,86.70
2018-06-05T03:11:52.593Z,87.20
2018-06-05T03:14:22.159Z,87.30
2018-06-05T03:16:51.712Z,87.60
2018-06-05T03:19:21.409Z,87.70
2018-06-05T03:21:51.116Z,87.30
2018-06-05T03:24:20.754Z,87.30
2018-06-05T03:26:50.361Z,87.70
2018-06-05T03:29:19.995Z,87.80
2018-06-05T03:31:49.604Z,88.30
2018-06-05T03:34:19.221Z,89.00
2018-06-05T03:36:48.778Z,88.50
2018-06-05T03:39:18.444Z,87.90
2018-06-05T03:41:48.069Z,87.30
2018-06-05T03:44:17.623Z,88.20
2018-06-05T03:46:47.575Z,87.70
2018-06-05T03:49:17.162Z,87.90
2018-06-05T03:51:46.966Z,87.80
2018-06-05T03:56:45.836Z,86.90
2018-06-05T03:59:15.483Z,87.00
2018-06-05T04:01:45.733Z,86.70
2018-06-05T04:04:15.363Z,87.00
2018-06-05T04:06:45.981Z,86.00
2018-06-05T04:09:15.548Z,86.10
2018-06-05T04:11:45.218Z,86.00
2018-06-05T04:14:14.813Z,85.10
2018-06-05T04:16:46.120Z,85.10
2018-06-05T04:19:15.750Z,84.40
2018-06-05T04:21:46.050Z,83.80
2018-06-05T04:24:15.651Z,83.90
2018-06-05T04:26:45.600Z,84.70
2018-06-05T04:29:15.183Z,83.20
2018-06-05T04:31:45.449Z,83.20
2018-06-05T04:34:15.010Z,83.60
2018-06-05T04:36:45.620Z,82.30
2018-06-05T04:39:15.195Z,81.50
2018-06-05T04:41:45.334Z,81.60
2018-06-05T04:44:14.951Z,80.50
2018-06-05T04:46:46.233Z,80.40
2018-06-05T04:49:15.779Z,80.00
2018-06-05T04:51:48.786Z,79.20
2018-06-05T04:54:18.428Z,78.00
2018-06-05T04:56:48.044Z,78.60
2018-06-05T04:59:17.603Z,76.40
2018-06-05T05:01:47.620Z,76.30
2018-06-05T05:04:17.278Z,77.20
2018-06-05T05:06:47.379Z,77.10
2018-06-05T05:09:20.212Z,75.50
2018-06-05T05:11:49.987Z,76.00
2018-06-05T05:14:19.624Z,76.80
2018-06-05T05:16:49.644Z,75.90
2018-06-05T05:19:19.279Z,76.30
2018-06-05T05:21:48.987Z,76.50
2018-06-05T05:24:18.650Z,76.20
2018-06-05T05:26:49.131Z,76.70
2018-06-05T05:29:18.793Z,77.40
2018-06-05T05:31:49.607Z,76.20
2018-06-05T05:34:19.255Z,77.40
2018-06-05T05:36:49.263Z,76.00
2018-06-05T05:39:18.965Z,75.50
2018-06-05T05:41:49.083Z,76.40
2018-06-05T05:44:18.732Z,77.50
2018-06-05T05:46:49.782Z,76.70
2018-06-05T05:49:19.456Z,77.30
2018-06-05T05:51:49.539Z,76.50
2018-06-05T05:54:19.180Z,77.10
2018-06-05T05:56:49.970Z,77.30
2018-06-05T05:59:19.685Z,77.30
2018-06-05T06:01:50.432Z,77.40
2018-06-05T06:04:20.036Z,78.10
2018-06-05T06:06:50.300Z,77.30
2018-06-05T06:09:19.933Z,77.20
2018-06-05T06:11:49.988Z,77.30
2018-06-05T06:14:19.677Z,75.80
2018-06-05T06:16:49.732Z,75.40
2018-06-05T06:19:19.450Z,75.80
2018-06-05T06:21:49.548Z,75.10
2018-06-05T06:24:19.168Z,75.60
2018-06-05T06:26:49.376Z,75.60
2018-06-05T06:29:18.954Z,75.10
2018-06-05T06:31:49.140Z,75.70
2018-06-05T06:34:18.709Z,75.80
2018-06-05T06:36:49.079Z,77.20
2018-06-05T06:39:18.716Z,76.80
2018-06-05T06:41:48.676Z,77.20
2018-06-05T06:44:18.302Z,78.00
2018-06-05T06:46:48.376Z,79.10
2018-06-05T06:49:17.952Z,78.40
2018-06-05T06:51:47.595Z,77.40
2018-06-05T06:54:17.317Z,77.50
2018-06-05T06:56:46.882Z,77.70
2018-06-05T06:59:16.499Z,78.40
2018-06-05T07:01:46.561Z,77.20
2018-06-05T07:04:16.247Z,78.70
2018-06-05T07:06:45.893Z,78.20
2018-06-05T07:09:15.547Z,79.00
2018-06-05T07:11:45.178Z,77.60
2018-06-05T07:16:44.987Z,78.80
2018-06-05T07:19:14.599Z,79.40
2018-06-05T07:21:45.023Z,79.10
2018-06-05T07:24:14.605Z,80.00
2018-06-05T07:26:44.329Z,80.40
2018-06-05T07:29:13.951Z,79.90
2018-06-05T07:31:44.444Z,81.50
2018-06-05T07:34:14.056Z,79.90
2018-06-05T07:36:43.828Z,77.80
2018-06-05T07:39:13.682Z,77.50
2018-06-05T07:41:43.317Z,77.50
2018-06-05T07:44:12.976Z,77.10
2018-06-05T07:46:42.868Z,75.90
2018-06-05T07:49:12.605Z,76.30
2018-06-05T07:51:42.959Z,75.50
2018-06-05T07:54:12.585Z,73.50
2018-06-05T07:56:42.237Z,75.10
2018-06-05T07:59:11.857Z,75.60
2018-06-05T08:01:41.668Z,76.40
2018-06-05T08:04:11.283Z,76.60
2018-06-05T08:06:42.090Z,76.90
2018-06-05T08:09:12.012Z,76.90
2018-06-05T08:11:42.170Z,74.40
2018-06-05T08:14:11.855Z,74.20
2018-06-05T08:16:42.134Z,74.30
2018-06-05T08:19:11.748Z,73.40
2018-06-05T08:21:42.760Z,73.30
2018-06-05T08:24:12.821Z,74.10
2018-06-05T08:26:54.795Z,73.60
2018-06-05T08:29:24.470Z,74.50
2018-06-05T08:31:54.460Z,74.20
2018-06-05T08:34:24.057Z,74.50
2018-06-05T08:36:53.803Z,75.20
2018-06-05T08:39:23.528Z,75.00
2018-06-05T08:41:53.152Z,74.10
2018-06-05T08:46:52.019Z,73.40
2018-06-05T08:49:21.728Z,73.90
2018-06-05T08:51:51.590Z,73.80
2018-06-05T08:54:21.171Z,73.20
2018-06-05T08:56:50.851Z,74.40
2018-06-05T08:59:20.404Z,73.40
2018-06-05T09:01:49.979Z,73.70
2018-06-05T09:04:19.707Z,75.00
2018-06-05T09:06:49.436Z,74.90
2018-06-05T09:09:19.142Z,72.60
2018-06-05T09:11:48.777Z,74.60
2018-06-05T09:14:18.349Z,73.30
2018-06-05T09:19:17.548Z,72.70
2018-06-05T09:24:16.518Z,72.30
2018-06-05T09:26:46.212Z,70.60
2018-06-05T09:29:15.779Z,71.70
2018-06-05T09:31:46.411Z,70.10
2018-06-05T09:34:16.067Z,69.40
2018-06-05T09:36:45.896Z,70.90
2018-06-05T09:39:15.536Z,69.20
2018-06-05T09:41:45.163Z,69.60
2018-06-05T09:44:14.740Z,68.30
2018-06-05T09:46:45.265Z,70.80
2018-06-05T09:51:44.371Z,73.50
2018-06-05T09:54:13.954Z,74.40
2018-06-05T09:56:43.646Z,72.60
2018-06-05T09:59:13.315Z,73.50
2018-06-05T10:01:43.471Z,72.60
2018-06-05T10:04:13.084Z,72.80
2018-06-05T10:06:43.207Z,71.40
2018-06-05T10:09:13.070Z,71.40
2018-06-05T10:11:42.701Z,71.40
2018-06-05T10:14:12.414Z,71.40
2018-06-05T10:16:42.292Z,69.20
2018-06-05T10:19:11.947Z,68.80
2018-06-05T10:21:42.504Z,69.70
2018-06-05T10:24:12.119Z,70.40
2018-06-05T10:26:41.753Z,71.90
2018-06-05T10:29:11.398Z,70.40
2018-06-05T10:31:41.441Z,68.70
2018-06-05T10:34:10.945Z,68.50
2018-06-05T10:36:41.735Z,69.70
2018-06-05T10:39:11.523Z,68.10
2018-06-05T10:41:41.346Z,67.80
2018-06-05T10:44:11.069Z,67.60
2018-06-05T10:46:40.820Z,66.50
2018-06-05T10:49:10.407Z,63.80
2018-06-05T10:51:41.368Z,66.30
2018-06-05T10:54:10.943Z,64.10
2018-06-05T10:56:40.683Z,66.10
2018-06-05T10:59:10.364Z,67.20
2018-06-05T11:01:41.214Z,67.80
2018-06-05T11:04:10.829Z,68.00
2018-06-05T11:06:41.420Z,66.60
2018-06-05T11:09:11.044Z,65.00
2018-06-05T11:11:40.825Z,67.30
2018-06-05T11:14:10.484Z,66.20
2018-06-05T11:16:40.247Z,69.10
2018-06-05T11:19:09.882Z,65.60
2018-06-05T11:21:40.127Z,64.00
2018-06-05T11:24:09.790Z,64.40
2018-06-05T11:26:39.502Z,65.20
2018-06-05T11:29:09.189Z,64.80
2018-06-05T11:31:38.910Z,67.50
2018-06-05T11:34:08.640Z,66.10
2018-06-05T11:36:39.086Z,64.80
2018-06-05T11:39:09.617Z,63.90
2018-06-05T11:41:39.254Z,63.30
2018-06-05T11:44:09.005Z,60.90
2018-06-05T11:46:38.628Z,62.70
2018-06-05T11:49:08.622Z,60.80
2018-06-05T11:51:38.666Z,61.70
2018-06-05T11:54:09.154Z,62.50
2018-06-05T11:56:38.768Z,60.10
2018-06-05T11:59:09.315Z,58.30
2018-06-05T12:01:39.943Z,59.40
2018-06-05T12:04:09.776Z,58.60
2018-06-05T12:06:40.072Z,57.80
2018-06-05T12:09:09.961Z,57.60
2018-06-05T12:11:39.813Z,57.60
2018-06-05T12:14:09.927Z,56.30
2018-06-05T12:16:39.692Z,55.70
2018-06-05T12:19:10.168Z,53.20
2018-06-05T12:21:40.477Z,54.30
2018-06-05T12:24:10.382Z,53.30
2018-06-05T12:26:40.069Z,54.30
2018-06-05T12:29:10.188Z,54.10
2018-06-05T12:31:39.826Z,54.10
2018-06-05T12:34:10.358Z,54.20
2018-06-05T12:36:40.777Z,54.20
2018-06-05T12:39:11.224Z,54.00
2018-06-05T12:41:40.986Z,52.60
2018-06-05T12:44:11.339Z,51.90
2018-06-05T12:46:41.051Z,51.90
2018-06-05T12:49:11.388Z,51.90
2018-06-05T12:51:42.439Z,53.10
2018-06-05T12:54:12.298Z,55.00
2018-06-05T12:56:42.088Z,55.10
2018-06-05T12:59:12.128Z,55.30
2018-06-05T13:01:41.916Z,54.40
2018-06-05T13:04:12.409Z,52.20
2018-06-05T13:06:42.712Z,50.60
2018-06-05T13:09:12.866Z,50.70
2018-06-05T13:11:43.430Z,52.90
2018-06-05T13:14:13.172Z,53.20
2018-06-05T13:16:42.913Z,54.30
2018-06-05T13:19:13.142Z,53.80
2018-06-05T13:21:43.220Z,54.60
2018-06-05T13:24:13.590Z,53.60
2018-06-05T13:26:43.175Z,53.50
2018-06-05T13:29:13.648Z,52.30
2018-06-05T13:31:43.560Z,52.60
2018-06-05T13:34:14.097Z,52.10
2018-06-05T13:36:44.121Z,53.40
2018-06-05T13:39:14.272Z,53.00
2018-06-05T13:41:43.895Z,53.10
2018-06-05T13:44:14.065Z,54.30
2018-06-05T13:46:44.034Z,55.50
2018-06-05T13:49:14.197Z,56.00
2018-06-05T13:51:44.095Z,55.40
2018-06-05T13:56:43.729Z,55.10
2018-06-05T13:59:14.026Z,53.20
2018-06-05T14:01:44.091Z,52.40
2018-06-05T14:04:14.216Z,53.40
2018-06-05T14:06:44.258Z,52.40
2018-06-05T14:09:20.996Z,53.10
2018-06-05T14:11:50.580Z,52.40
2018-06-05T14:14:20.113Z,52.60
2018-06-05T14:16:50.186Z,50.70
2018-06-05T14:19:19.758Z,51.50
2018-06-05T14:21:49.383Z,51.20
2018-06-05T14:24:19.016Z,51.30
2018-06-05T14:26:48.757Z,51.90
2018-06-05T14:29:18.327Z,51.40
2018-06-05T14:31:48.250Z,52.40
2018-06-05T14:34:17.872Z,53.10
2018-06-05T14:36:47.514Z,55.10
2018-06-05T14:39:17.602Z,54.30
2018-06-05T14:41:47.241Z,54.30
2018-06-05T14:44:17.974Z,54.50
2018-06-05T14:46:47.994Z,53.90
2018-06-05T14:49:17.939Z,53.50
2018-06-05T14:51:47.615Z,53.20
2018-06-05T14:54:18.038Z,52.40
2018-06-05T14:56:47.784Z,52.20
2018-06-05T15:01:47.558Z,52.20
2018-06-05T15:04:18.103Z,52.70
2018-06-05T15:06:47.853Z,53.60
2018-06-05T15:09:18.412Z,53.10
2018-06-05T15:11:48.116Z,53.50
2018-06-05T15:14:18.796Z,53.50
2018-06-05T15:16:48.780Z,53.80
2018-06-05T15:19:19.255Z,53.60
2018-06-05T15:21:48.939Z,53.30
2018-06-05T15:24:19.370Z,54.40
2018-06-05T15:26:48.908Z,54.80
2018-06-05T15:29:19.310Z,54.90
2018-06-05T15:31:49.426Z,55.20
2018-06-05T15:34:19.881Z,55.00
2018-06-05T15:36:49.450Z,55.00
2018-06-05T15:39:20.146Z,54.50
2018-06-05T15:41:49.801Z,54.90
2018-06-05T15:44:20.125Z,55.40
2018-06-05T15:46:50.021Z,55.10
2018-06-05T15:49:20.418Z,55.00
2018-06-05T15:51:50.235Z,55.20
2018-06-05T15:54:20.783Z,53.60
2018-06-05T15:56:50.489Z,54.40
2018-06-05T15:59:20.994Z,55.30
2018-06-05T16:01:50.770Z,55.40
2018-06-05T16:04:21.289Z,54.80
2018-06-05T16:06:50.969Z,54.40
2018-06-05T16:09:21.467Z,53.60
2018-06-05T16:11:51.085Z,54.10
2018-06-05T16:14:21.479Z,54.20
2018-06-05T16:16:51.174Z,55.10
2018-06-05T16:19:21.466Z,55.70
2018-06-05T16:21:51.083Z,55.40
2018-06-05T16:24:21.637Z,56.00
2018-06-05T16:26:51.273Z,54.80
2018-06-05T16:29:21.223Z,54.90
2018-06-05T16:31:50.881Z,55.80
2018-06-05T16:34:21.107Z,55.40
2018-06-05T16:36:50.707Z,56.20
2018-06-05T16:39:21.282Z,55.10
2018-06-05T16:41:50.964Z,55.80
2018-06-05T16:44:20.893Z,56.00
2018-06-05T16:46:50.677Z,55.70
2018-06-05T16:49:20.909Z,55.90
2018-06-05T16:51:50.620Z,55.50
2018-06-05T16:54:20.606Z,55.90
2018-06-05T16:59:19.552Z,56.20
2018-06-05T17:01:49.465Z,57.30
2018-06-05T17:04:19.164Z,57.00
2018-06-05T17:06:48.760Z,57.10
2018-06-05T17:09:18.487Z,57.90
2018-06-05T17:11:49.543Z,57.70
2018-06-05T17:14:19.563Z,57.60
2018-06-05T17:16:49.475Z,57.60
2018-06-05T17:19:19.127Z,57.50
2018-06-05T17:21:48.751Z,58.20
2018-06-05T17:24:18.480Z,58.20
2018-06-05T17:26:48.127Z,57.80
2018-06-05T17:29:17.812Z,57.30
2018-06-05T17:31:48.592Z,56.80
2018-06-05T17:34:18.249Z,57.40
2018-06-05T17:36:47.841Z,57.50
2018-06-05T17:39:21.073Z,57.80
2018-06-05T17:41:51.251Z,58.20
2018-06-05T17:44:21.376Z,58.80
2018-06-05T17:46:55.449Z,58.90
2018-06-05T17:49:26.624Z,59.30
2018-06-05T17:51:56.237Z,59.20
2018-06-05T17:54:26.400Z,59.80
2018-06-05T17:56:56.067Z,60.90
2018-06-05T17:59:26.548Z,60.80
2018-06-05T18:01:56.131Z,60.70
2018-06-05T18:04:26.463Z,60.70
2018-06-05T18:06:56.107Z,60.90
2018-06-05T18:09:26.355Z,60.90
2018-06-05T18:11:55.932Z,61.20
2018-06-05T18:14:26.495Z,61.40
2018-06-05T18:16:56.069Z,61.20
2018-06-05T18:19:26.621Z,54.50
2018-06-05T18:21:56.245Z,47.40
2018-06-05T18:24:26.453Z,44.60
2018-06-05T18:26:56.066Z,43.60
2018-06-05T18:29:26.206Z,44.10
2018-06-05T18:31:56.414Z,44.70
2018-06-05T18:34:26.395Z,45.40
2018-06-05T18:36:56.066Z,44.50
2018-06-05T18:41:56.142Z,44.20
2018-06-05T18:44:26.263Z,44.40
2018-06-05T18:46:55.897Z,44.60
2018-06-05T18:49:25.782Z,44.40
2018-06-05T18:51:55.408Z,44.70
2018-06-05T18:54:24.996Z,44.50
2018-06-05T18:56:54.616Z,46.00
2018-06-05T18:59:24.224Z,45.70
2018-06-05T19:01:53.853Z,44.40
2018-06-05T19:04:23.490Z,45.20
2018-06-05T19:06:53.086Z,43.90
2018-06-05T19:09:22.736Z,44.30
2018-06-05T19:11:52.324Z,44.60
2018-06-05T19:14:21.909Z,43.80
2018-06-05T19:16:51.728Z,44.10
2018-06-05T19:19:21.322Z,43.80
2018-06-05T19:21:50.933Z,44.50
2018-06-05T19:26:49.760Z,43.50
2018-06-05T19:29:19.430Z,44.40
2018-06-05T19:31:49.485Z,44.30
2018-06-05T19:34:19.058Z,44.10
2018-06-05T19:36:48.617Z,43.20
2018-06-05T19:39:18.215Z,43.30
2018-06-05T19:41:47.747Z,43.10
2018-06-05T19:44:17.355Z,43.20
2018-06-05T19:46:48.003Z,42.80
2018-06-05T19:49:17.610Z,42.50
2018-06-05T19:51:47.164Z,42.80
2018-06-05T19:54:16.730Z,42.80
2018-06-05T19:56:46.326Z,43.50
2018-06-05T19:59:16.028Z,43.80
2018-06-05T20:01:46.605Z,44.20
2018-06-05T20:04:16.193Z,44.20
2018-06-05T20:06:45.857Z,44.70
2018-06-05T20:09:15.455Z,44.60
2018-06-05T20:11:45.684Z,45.00
2018-06-05T20:14:15.290Z,45.20
2018-06-05T20:16:45.447Z,45.90
2018-06-05T20:19:15.057Z,46.50
2018-06-05T20:21:44.958Z,47.50
2018-06-05T20:24:14.540Z,47.90
2018-06-05T20:26:45.310Z,48.10
2018-06-05T20:29:15.445Z,49.00
2018-06-05T20:31:45.711Z,48.40
2018-06-05T20:34:15.336Z,49.00
2018-06-05T20:36:45.364Z,48.60
2018-06-05T20:39:15.035Z,49.10
2018-06-05T20:41:44.667Z,49.40
2018-06-05T20:44:14.180Z,49.50
2018-06-05T20:46:43.762Z,49.60
2018-06-05T20:49:13.663Z,50.60
2018-06-05T20:51:43.828Z,49.90
2018-06-05T20:54:13.414Z,49.70
2018-06-05T20:56:42.957Z,49.90
2018-06-05T21:01:42.339Z,50.50
2018-06-05T21:04:11.862Z,50.60
2018-06-05T21:06:42.573Z,50.30
2018-06-05T21:09:18.295Z,50.80
2018-06-05T21:11:48.360Z,50.60
2018-06-05T21:14:17.970Z,51.10
2018-06-05T21:16:48.324Z,51.60
2018-06-05T21:19:17.937Z,53.10
2018-06-05T21:21:47.502Z,52.70
2018-06-05T21:24:17.054Z,52.80
2018-06-05T21:26:46.608Z,53.20
2018-06-05T21:29:16.165Z,53.00
2018-06-05T21:31:46.165Z,53.40
2018-06-05T21:34:15.752Z,53.30
2018-06-05T21:36:45.456Z,53.60
2018-06-05T21:39:14.978Z,53.90
2018-06-05T21:41:44.460Z,54.60
2018-06-05T21:44:14.001Z,54.20
2018-06-05T21:46:44.164Z,54.80
2018-06-05T21:49:13.988Z,55.00
2018-06-05T21:51:44.026Z,55.10
2018-06-05T21:54:13.849Z,55.30
2018-06-05T21:56:43.687Z,55.60
2018-06-05T21:59:13.237Z,55.60
2018-06-05T22:01:43.091Z,55.70
2018-06-05T22:04:12.660Z,55.80
2018-06-05T22:06:42.907Z,56.40
2018-06-05T22:09:12.480Z,56.60
2018-06-05T22:11:43.053Z,56.50
2018-06-05T22:14:12.672Z,56.60
2018-06-05T22:16:42.460Z,56.50
2018-06-05T22:19:12.029Z,56.70
2018-06-05T22:21:43.153Z,57.10
2018-06-05T22:24:12.944Z,57.10
2018-06-05T22:26:42.652Z,56.80
2018-06-05T22:29:12.204Z,57.00
2018-06-05T22:31:41.891Z,57.40
2018-06-05T22:34:11.449Z,57.50
2018-06-05T22:36:42.169Z,57.30
2018-06-05T22:39:11.737Z,57.80
2018-06-05T22:41:41.278Z,58.00
2018-06-05T22:44:10.804Z,57.70
2018-06-05T22:46:40.449Z,57.80
2018-06-05T22:49:10.014Z,58.00
2018-06-05T22:51:40.241Z,58.20
2018-06-05T22:54:09.808Z,58.50
2018-06-05T22:56:39.401Z,58.40
2018-06-05T22:59:09.039Z,58.80
2018-06-05T23:01:39.081Z,59.00
2018-06-05T23:04:08.720Z,58.80
2018-06-05T23:06:39.067Z,59.10
2018-06-05T23:09:08.781Z,59.00
2018-06-05T23:11:38.342Z,59.40
2018-06-05T23:14:07.875Z,59.90
2018-06-05T23:16:37.474Z,59.10
2018-06-05T23:19:07.018Z,59.10
2018-06-05T23:21:36.552Z,59.00
2018-06-05T23:24:06.120Z,59.00
2018-06-05T23:26:35.667Z,59.30
2018-06-05T23:29:05.326Z,59.70
2018-06-05T23:31:35.564Z,59.70
2018-06-05T23:34:05.090Z,59.70
2018-06-05T23:36:34.622Z,59.60
2018-06-05T23:39:04.686Z,59.80
2018-06-05T23:41:34.977Z,60.00
2018-06-05T23:44:04.627Z,60.60
2018-06-05T23:46:34.217Z,60.30
2018-06-05T23:49:03.759Z,60.50
2018-06-05T23:51:34.139Z,60.90
2018-06-05T23:54:03.624Z,60.60
2018-06-05T23:56:33.217Z,61.00
2018-06-05T23:59:02.895Z,61.20
